createdAt,value
2022-12-08T00:01:23.605Z,81.89
2022-12-08T00:03:51.202Z,81.72
2022-12-08T00:06:50.704Z,81.97
2022-12-08T00:09:29.124Z,82.01
2022-12-08T00:12:03.266Z,81.97
2022-12-08T00:14:36.106Z,81.77
2022-12-08T00:17:04.411Z,81.87
2022-12-08T00:19:32.017Z,81.94
2022-12-08T00:21:59.456Z,81.68
2022-12-08T00:24:31.834Z,81.91
2022-12-08T00:26:58.687Z,81.94
2022-12-08T00:29:25.990Z,82.09
2022-12-08T00:31:53.507Z,82.38
2022-12-08T00:34:20.774Z,82.20
2022-12-08T00:36:47.743Z,82.03
2022-12-08T00:39:15.615Z,82.46
2022-12-08T00:42:01.007Z,82.46
2022-12-08T00:44:27.887Z,82.67
2022-12-08T00:46:54.805Z,82.71
2022-12-08T00:49:22.095Z,82.60
2022-12-08T00:51:49.080Z,82.55
2022-12-08T00:54:16.143Z,82.33
2022-12-08T00:56:42.944Z,82.69
2022-12-08T00:59:10.201Z,82.62
2022-12-08T01:01:37.273Z,82.60
2022-12-08T01:04:10.609Z,82.62
2022-12-08T01:06:38.939Z,82.54
2022-12-08T01:09:07.483Z,82.49
2022-12-08T01:11:35.143Z,82.46
2022-12-08T01:14:02.232Z,82.78
2022-12-08T01:16:33.873Z,82.79
2022-12-08T01:19:01.800Z,82.55
2022-12-08T01:21:28.963Z,82.47
2022-12-08T01:23:56.415Z,82.58
2022-12-08T01:26:23.282Z,82.57
2022-12-08T01:28:50.224Z,82.42
2022-12-08T01:31:19.764Z,82.20
2022-12-08T01:33:47.717Z,82.13
2022-12-08T01:36:26.866Z,82.27
2022-12-08T01:38:54.712Z,82.00
2022-12-08T01:41:23.901Z,82.13
2022-12-08T01:44:00.396Z,82.04
2022-12-08T01:46:29.316Z,82.11
2022-12-08T01:49:02.408Z,81.97
2022-12-08T01:51:33.556Z,81.81
2022-12-08T01:54:01.747Z,81.62
2022-12-08T01:56:43.449Z,81.83
2022-12-08T01:59:12.187Z,82.07
2022-12-08T02:01:39.877Z,82.01
2022-12-08T02:04:06.989Z,82.01
2022-12-08T02:06:38.607Z,81.85
2022-12-08T02:09:06.293Z,81.80
2022-12-08T02:11:33.136Z,81.77
2022-12-08T02:14:01.310Z,81.76
2022-12-08T02:16:37.195Z,81.70
2022-12-08T02:19:30.871Z,81.72
2022-12-08T02:22:07.080Z,81.80
2022-12-08T02:24:52.844Z,81.80
2022-12-08T02:27:44.799Z,81.75
2022-12-08T02:30:20.019Z,81.68
2022-12-08T02:33:23.938Z,81.94
2022-12-08T02:35:53.392Z,81.69
2022-12-08T02:38:25.816Z,81.73
2022-12-08T02:41:13.866Z,81.75
2022-12-08T02:44:03.501Z,81.70
2022-12-08T02:46:39.855Z,81.64
2022-12-08T02:49:07.539Z,81.66
2022-12-08T02:51:34.345Z,81.69
2022-12-08T02:54:02.339Z,81.65
2022-12-08T02:56:47.672Z,81.62
2022-12-08T02:59:26.289Z,81.50
2022-12-08T03:02:08.763Z,81.59
2022-12-08T03:04:50.307Z,81.60
2022-12-08T03:07:27.117Z,81.72
2022-12-08T03:10:23.945Z,81.64
2022-12-08T03:13:08.287Z,81.59
2022-12-08T03:15:38.032Z,81.49
2022-12-08T03:18:08.316Z,81.68
2022-12-08T03:20:36.060Z,81.72
2022-12-08T03:23:08.547Z,81.81
2022-12-08T03:25:38.811Z,81.65
2022-12-08T03:28:06.477Z,81.72
2022-12-08T03:30:37.483Z,81.91
2022-12-08T03:33:39.946Z,81.95
2022-12-08T03:36:09.271Z,81.80
2022-12-08T03:38:42.371Z,81.94
2022-12-08T03:41:18.702Z,81.87
2022-12-08T03:43:57.489Z,81.91
2022-12-08T03:48:52.788Z,81.73
2022-12-08T03:51:19.951Z,81.60
2022-12-08T03:53:47.114Z,81.61
2022-12-08T03:56:36.306Z,81.52
2022-12-08T03:59:04.401Z,81.43
2022-12-08T04:01:31.471Z,81.24
2022-12-08T04:03:58.392Z,81.28
2022-12-08T04:06:26.104Z,81.30
2022-12-08T04:08:53.191Z,81.58
2022-12-08T04:11:20.394Z,81.42
2022-12-08T04:13:47.480Z,81.28
2022-12-08T04:16:23.474Z,81.43
2022-12-08T04:18:50.392Z,81.46
2022-12-08T04:21:17.459Z,81.71
2022-12-08T04:23:44.432Z,82.22
2022-12-08T04:26:11.850Z,82.43
2022-12-08T04:28:38.875Z,82.50
2022-12-08T04:31:06.875Z,82.85
2022-12-08T04:33:35.267Z,83.13
2022-12-08T04:36:03.567Z,83.41
2022-12-08T04:38:30.691Z,83.42
2022-12-08T04:40:57.665Z,83.94
2022-12-08T04:43:24.480Z,84.03
2022-12-08T04:45:51.284Z,83.74
2022-12-08T04:48:18.458Z,84.00
2022-12-08T04:50:46.218Z,84.54
2022-12-08T04:53:13.999Z,84.63
2022-12-08T04:55:45.208Z,84.61
2022-12-08T04:58:13.956Z,84.77
2022-12-08T05:00:41.175Z,84.61
2022-12-08T05:03:08.059Z,84.74
2022-12-08T05:05:35.064Z,84.83
2022-12-08T05:08:02.083Z,85.03
2022-12-08T05:10:29.070Z,85.04
2022-12-08T05:12:55.909Z,85.48
2022-12-08T05:15:22.680Z,86.06
2022-12-08T05:17:49.543Z,85.79
2022-12-08T05:20:16.470Z,85.69
2022-12-08T05:22:43.348Z,85.80
2022-12-08T05:25:10.221Z,85.96
2022-12-08T05:27:37.391Z,85.76
2022-12-08T05:30:05.096Z,86.05
2022-12-08T05:32:32.104Z,86.13
2022-12-08T05:34:58.863Z,85.79
2022-12-08T05:37:25.711Z,85.75
2022-12-08T05:39:52.483Z,85.64
2022-12-08T05:42:24.401Z,85.86
2022-12-08T05:44:51.611Z,85.93
2022-12-08T05:47:18.424Z,85.77
2022-12-08T05:49:45.286Z,85.99
2022-12-08T05:52:12.230Z,85.90
2022-12-08T05:54:39.081Z,86.07
2022-12-08T05:57:05.874Z,85.96
2022-12-08T05:59:32.749Z,86.09
2022-12-08T06:01:59.701Z,86.11
2022-12-08T06:04:26.678Z,86.00
2022-12-08T06:06:53.661Z,85.87
2022-12-08T06:09:20.520Z,85.83
2022-12-08T06:11:47.331Z,86.09
2022-12-08T06:14:14.376Z,86.09
2022-12-08T06:16:41.369Z,86.19
2022-12-08T06:19:08.323Z,86.06
2022-12-08T06:21:35.170Z,86.09
2022-12-08T06:24:02.089Z,86.12
2022-12-08T06:26:29.052Z,86.17
2022-12-08T06:28:56.224Z,86.09
2022-12-08T06:31:25.246Z,85.88
2022-12-08T06:33:53.406Z,86.06
2022-12-08T06:36:23.031Z,86.02
2022-12-08T06:38:50.323Z,86.00
2022-12-08T06:41:17.896Z,86.19
2022-12-08T06:43:45.192Z,86.04
2022-12-08T06:46:15.058Z,86.24
2022-12-08T06:48:42.101Z,86.19
2022-12-08T06:51:11.408Z,86.36
2022-12-08T06:53:38.862Z,86.32
2022-12-08T06:56:06.398Z,86.35
2022-12-08T06:58:33.559Z,86.35
2022-12-08T07:01:09.416Z,86.44
2022-12-08T07:03:37.954Z,86.39
2022-12-08T07:06:05.752Z,86.30
2022-12-08T07:08:34.095Z,86.35
2022-12-08T07:11:07.150Z,86.51
2022-12-08T07:13:34.067Z,86.48
2022-12-08T07:16:00.994Z,86.44
2022-12-08T07:18:27.839Z,86.45
2022-12-08T07:20:54.688Z,86.35
2022-12-08T07:23:21.645Z,86.25
2022-12-08T07:25:48.454Z,86.17
2022-12-08T07:28:15.302Z,86.29
2022-12-08T07:30:42.139Z,86.16
2022-12-08T07:33:09.128Z,86.12
2022-12-08T07:35:35.924Z,86.46
2022-12-08T07:38:03.112Z,86.64
2022-12-08T07:40:33.052Z,86.40
2022-12-08T07:43:00.008Z,86.38
2022-12-08T07:45:31.516Z,86.35
2022-12-08T07:47:58.917Z,86.25
2022-12-08T07:50:25.695Z,86.32
2022-12-08T07:52:52.631Z,86.32
2022-12-08T07:55:19.467Z,86.11
2022-12-08T07:57:46.325Z,86.19
2022-12-08T08:00:13.820Z,86.41
2022-12-08T08:02:41.342Z,86.40
2022-12-08T08:05:09.003Z,86.65
2022-12-08T08:07:37.272Z,86.56
2022-12-08T08:10:05.519Z,86.65
2022-12-08T08:12:33.350Z,86.60
2022-12-08T08:15:01.837Z,86.67
2022-12-08T08:17:29.822Z,86.75
2022-12-08T08:19:56.969Z,86.73
2022-12-08T08:22:25.494Z,86.79
2022-12-08T08:24:52.886Z,86.74
2022-12-08T08:27:20.370Z,86.71
2022-12-08T08:29:47.184Z,86.62
2022-12-08T08:32:14.171Z,86.67
2022-12-08T08:34:41.001Z,86.70
2022-12-08T08:37:08.034Z,86.69
2022-12-08T08:39:34.914Z,86.70
2022-12-08T08:42:01.830Z,86.74
2022-12-08T08:44:28.728Z,86.78
2022-12-08T08:46:55.654Z,86.71
2022-12-08T08:49:22.565Z,86.77
2022-12-08T08:51:49.721Z,86.86
2022-12-08T08:54:16.629Z,87.15
2022-12-08T08:56:43.463Z,87.04
2022-12-08T08:59:10.623Z,86.96
2022-12-08T09:01:37.613Z,86.89
2022-12-08T09:04:05.025Z,87.17
2022-12-08T09:06:32.307Z,87.06
2022-12-08T09:08:59.320Z,87.14
2022-12-08T09:11:27.298Z,87.15
2022-12-08T09:13:55.035Z,86.93
2022-12-08T09:16:22.734Z,86.91
2022-12-08T09:18:50.034Z,86.94
2022-12-08T09:21:23.261Z,86.96
2022-12-08T09:23:51.271Z,87.07
2022-12-08T09:26:18.217Z,87.15
2022-12-08T09:28:46.764Z,87.17
2022-12-08T09:31:14.509Z,86.95
2022-12-08T09:33:41.824Z,86.88
2022-12-08T09:36:12.640Z,86.90
2022-12-08T09:38:40.676Z,87.10
2022-12-08T09:41:29.346Z,87.22
2022-12-08T09:44:26.243Z,87.16
2022-12-08T09:46:55.495Z,87.35
2022-12-08T09:49:33.664Z,87.27
2022-12-08T09:52:01.165Z,87.34
2022-12-08T09:54:33.586Z,87.60
2022-12-08T09:57:07.368Z,87.44
2022-12-08T09:59:35.754Z,87.49
2022-12-08T10:02:06.349Z,87.42
2022-12-08T10:04:38.474Z,87.59
2022-12-08T10:07:30.831Z,87.51
2022-12-08T10:10:05.992Z,87.52
2022-12-08T10:12:54.679Z,87.57
2022-12-08T10:15:39.252Z,87.45
2022-12-08T10:18:23.239Z,87.37
2022-12-08T10:20:57.749Z,87.54
2022-12-08T10:23:27.659Z,87.54
2022-12-08T10:26:01.733Z,87.55
2022-12-08T10:28:29.010Z,87.41
2022-12-08T10:30:55.911Z,87.42
2022-12-08T10:33:23.793Z,87.40
2022-12-08T10:35:54.052Z,87.33
2022-12-08T10:38:31.338Z,87.28
2022-12-08T10:41:10.101Z,87.21
2022-12-08T10:43:42.966Z,87.26
2022-12-08T10:46:16.265Z,87.47
2022-12-08T10:49:11.264Z,87.41
2022-12-08T10:51:40.518Z,87.40
2022-12-08T10:54:29.295Z,87.45
2022-12-08T10:56:57.639Z,87.42
2022-12-08T10:59:25.744Z,87.28
2022-12-08T11:01:55.410Z,87.38
2022-12-08T11:04:36.877Z,87.42
2022-12-08T11:07:11.164Z,87.51
2022-12-08T11:09:48.146Z,87.44
2022-12-08T11:12:16.682Z,87.48
2022-12-08T11:14:43.443Z,87.40
2022-12-08T11:17:22.188Z,87.38
2022-12-08T11:20:04.032Z,87.45
2022-12-08T11:22:38.079Z,87.73
2022-12-08T11:25:07.985Z,87.66
2022-12-08T11:27:37.281Z,88.09
2022-12-08T11:30:19.378Z,87.84
2022-12-08T11:32:53.887Z,88.01
2022-12-08T11:35:24.101Z,87.81
2022-12-08T11:37:51.146Z,87.71
2022-12-08T11:40:25.078Z,87.75
2022-12-08T11:43:06.532Z,87.87
2022-12-08T11:45:35.763Z,87.72
2022-12-08T11:48:02.752Z,87.76
2022-12-08T11:50:36.385Z,87.65
2022-12-08T11:53:06.076Z,87.64
2022-12-08T11:55:41.599Z,87.58
2022-12-08T11:58:22.775Z,87.60
2022-12-08T12:00:50.149Z,87.52
2022-12-08T12:03:29.760Z,87.38
2022-12-08T12:06:37.655Z,87.41
2022-12-08T12:09:10.693Z,87.41
2022-12-08T12:12:14.098Z,87.48
2022-12-08T12:14:54.421Z,87.35
2022-12-08T12:17:36.916Z,87.34
2022-12-08T12:20:10.146Z,87.38
2022-12-08T12:22:38.093Z,87.25
2022-12-08T12:25:05.779Z,87.29
2022-12-08T12:27:42.002Z,87.39
2022-12-08T12:30:20.214Z,87.28
2022-12-08T12:33:01.945Z,87.23
2022-12-08T12:35:38.407Z,87.21
2022-12-08T12:39:06.257Z,87.11
2022-12-08T12:41:35.984Z,86.86
2022-12-08T12:44:14.829Z,86.81
2022-12-08T12:46:41.669Z,86.91
2022-12-08T12:49:39.478Z,86.98
2022-12-08T12:52:15.564Z,86.99
2022-12-08T12:54:43.454Z,86.97
2022-12-08T12:57:13.233Z,86.94
2022-12-08T12:59:54.697Z,86.91
2022-12-08T13:02:56.582Z,86.88
2022-12-08T13:05:26.491Z,86.77
2022-12-08T13:07:53.358Z,86.67
2022-12-08T13:10:28.210Z,86.48
2022-12-08T13:13:21.501Z,86.41
2022-12-08T13:16:18.489Z,86.40
2022-12-08T13:18:51.244Z,86.40
2022-12-08T13:21:22.980Z,86.37
2022-12-08T13:23:51.965Z,86.35
2022-12-08T13:26:25.756Z,86.32
2022-12-08T13:29:01.669Z,86.27
2022-12-08T13:31:37.851Z,86.27
2022-12-08T13:34:07.506Z,86.25
2022-12-08T13:36:38.954Z,86.23
2022-12-08T13:39:07.084Z,86.19
2022-12-08T13:41:40.114Z,86.15
2022-12-08T13:59:23.785Z,86.58
2022-12-08T14:01:51.690Z,86.68
2022-12-08T14:07:12.422Z,86.72
2022-12-08T14:09:40.519Z,86.69
2022-12-08T14:12:27.848Z,86.69
2022-12-08T14:15:04.613Z,86.68
2022-12-08T14:17:32.980Z,86.58
2022-12-08T14:20:01.327Z,86.39
2022-12-08T14:22:36.384Z,86.35
2022-12-08T14:25:07.226Z,86.33
2022-12-08T14:27:36.812Z,86.38
2022-12-08T14:30:13.563Z,86.46
2022-12-08T14:32:55.729Z,86.53
2022-12-08T14:35:24.607Z,86.58
2022-12-08T14:37:55.922Z,86.64
2022-12-08T14:40:28.797Z,86.58
2022-12-08T14:43:07.767Z,86.62
2022-12-08T14:45:46.305Z,86.68
2022-12-08T14:48:19.290Z,86.62
2022-12-08T14:51:01.917Z,86.54
2022-12-08T14:53:44.371Z,86.51
2022-12-08T14:56:36.082Z,86.38
2022-12-08T14:59:03.354Z,86.44
2022-12-08T15:01:30.616Z,86.36
2022-12-08T15:04:13.458Z,86.34
2022-12-08T15:06:59.858Z,86.32
2022-12-08T15:09:41.063Z,86.31
2022-12-08T15:12:13.900Z,86.24
2022-12-08T15:14:42.203Z,86.12
2022-12-08T15:17:44.775Z,86.18
2022-12-08T15:20:34.865Z,86.13
2022-12-08T15:23:03.099Z,86.09
2022-12-08T15:25:30.128Z,85.96
2022-12-08T15:27:58.038Z,85.93
2022-12-08T15:30:28.828Z,85.79
2022-12-08T15:32:56.487Z,85.77
2022-12-08T15:35:23.599Z,85.68
2022-12-08T15:37:50.581Z,85.32
2022-12-08T15:40:20.231Z,85.45
2022-12-08T15:42:47.186Z,85.45
2022-12-08T15:45:15.322Z,85.39
2022-12-08T15:47:44.243Z,85.40
2022-12-08T15:50:19.645Z,85.40
2022-12-08T15:52:46.890Z,85.29
2022-12-08T15:55:15.493Z,85.42
2022-12-08T16:00:53.115Z,85.49
2022-12-08T16:04:19.925Z,85.52
2022-12-08T16:09:13.313Z,85.51
2022-12-08T16:12:09.126Z,85.51
2022-12-08T16:17:24.886Z,85.46
2022-12-08T16:19:51.788Z,85.46
2022-12-08T16:25:20.206Z,85.41
2022-12-08T16:30:36.959Z,85.32
2022-12-08T16:33:04.405Z,85.33
2022-12-08T16:35:31.571Z,85.31
2022-12-08T16:37:58.477Z,85.36
2022-12-08T16:40:25.403Z,85.20
2022-12-08T16:42:52.304Z,85.03
2022-12-08T16:45:24.743Z,85.05
2022-12-08T16:47:53.037Z,84.81
2022-12-08T16:50:24.506Z,84.92
2022-12-08T16:52:58.047Z,84.86
2022-12-08T16:55:25.417Z,84.68
2022-12-08T16:57:52.651Z,84.45
2022-12-08T17:00:22.132Z,84.65
2022-12-08T17:02:49.935Z,84.71
2022-12-08T17:05:19.058Z,84.55
2022-12-08T17:07:47.970Z,84.66
2022-12-08T17:10:17.991Z,84.58
2022-12-08T17:12:45.990Z,84.69
2022-12-08T17:15:16.262Z,84.75
2022-12-08T17:17:43.365Z,84.77
2022-12-08T17:20:14.892Z,84.85
2022-12-08T17:22:42.087Z,84.81
2022-12-08T17:25:09.214Z,84.87
2022-12-08T17:27:36.799Z,84.90
2022-12-08T17:30:06.368Z,84.84
2022-12-08T17:32:33.518Z,84.76
2022-12-08T17:35:00.454Z,84.68
2022-12-08T17:37:27.341Z,84.96
2022-12-08T17:39:54.131Z,84.90
2022-12-08T17:42:25.926Z,84.87
2022-12-08T17:44:53.560Z,85.03
2022-12-08T17:47:20.447Z,85.01
2022-12-08T17:49:47.523Z,85.02
2022-12-08T17:52:14.340Z,85.03
2022-12-08T17:54:41.178Z,85.11
2022-12-08T17:57:07.984Z,85.09
2022-12-08T17:59:35.282Z,85.26
2022-12-08T18:02:02.670Z,85.25
2022-12-08T18:04:29.933Z,85.06
2022-12-08T18:06:59.407Z,85.26
2022-12-08T18:09:26.347Z,85.14
2022-12-08T18:11:53.228Z,85.05
2022-12-08T18:14:20.226Z,85.28
2022-12-08T18:16:47.671Z,85.10
2022-12-08T18:19:15.109Z,85.03
2022-12-08T18:21:42.677Z,84.93
2022-12-08T18:24:17.608Z,85.03
2022-12-08T18:26:45.042Z,85.42
2022-12-08T18:29:11.949Z,85.60
2022-12-08T18:31:38.942Z,85.77
2022-12-08T18:34:05.829Z,85.91
2022-12-08T18:36:32.711Z,85.72
2022-12-08T18:38:59.517Z,85.84
2022-12-08T18:41:26.653Z,85.67
2022-12-08T18:43:54.494Z,85.67
2022-12-08T18:46:21.870Z,85.71
2022-12-08T18:48:50.618Z,85.61
2022-12-08T18:51:23.725Z,85.49
2022-12-08T18:53:51.388Z,85.45
2022-12-08T18:56:30.087Z,85.42
2022-12-08T18:59:03.330Z,85.45
2022-12-08T19:01:31.869Z,85.35
2022-12-08T19:06:46.958Z,84.86
2022-12-08T19:09:14.231Z,85.16
2022-12-08T19:11:41.849Z,85.00
2022-12-08T19:14:09.125Z,84.94
2022-12-08T19:16:36.856Z,84.85
2022-12-08T19:19:06.124Z,84.87
2022-12-08T19:21:33.340Z,84.64
2022-12-08T19:24:00.827Z,84.58
2022-12-08T19:26:28.808Z,84.81
2022-12-08T19:28:57.633Z,84.35
2022-12-08T19:31:25.258Z,84.45
2022-12-08T19:33:52.426Z,84.47
2022-12-08T19:36:22.662Z,84.26
2022-12-08T19:39:09.034Z,84.38
2022-12-08T19:41:55.056Z,84.29
2022-12-08T19:44:45.906Z,84.20
2022-12-08T19:47:12.947Z,84.11
2022-12-08T19:49:39.792Z,83.87
2022-12-08T19:52:06.921Z,84.03
2022-12-08T19:54:33.840Z,83.52
2022-12-08T19:57:00.995Z,83.96
2022-12-08T19:59:30.072Z,83.80
2022-12-08T20:01:58.657Z,83.65
2022-12-08T20:04:27.166Z,83.65
2022-12-08T20:06:55.680Z,83.70
2022-12-08T20:09:23.693Z,83.52
2022-12-08T20:11:51.024Z,83.36
2022-12-08T20:14:18.422Z,83.35
2022-12-08T20:16:45.459Z,83.40
2022-12-08T20:19:12.341Z,83.34
2022-12-08T20:21:40.032Z,83.20
2022-12-08T20:24:07.218Z,82.86
2022-12-08T20:26:34.294Z,82.89
2022-12-08T20:29:01.206Z,82.87
2022-12-08T20:31:30.851Z,82.94
2022-12-08T20:33:58.096Z,82.71
2022-12-08T20:36:25.437Z,82.22
2022-12-08T20:38:54.044Z,82.65
2022-12-08T20:41:23.409Z,82.73
2022-12-08T20:43:51.696Z,82.26
2022-12-08T20:46:20.363Z,82.65
2022-12-08T20:48:47.803Z,82.33
2022-12-08T20:51:19.408Z,82.38
2022-12-08T20:53:47.083Z,82.47
2022-12-08T20:56:18.898Z,82.28
2022-12-08T20:58:46.398Z,82.26
2022-12-08T21:01:15.464Z,82.30
2022-12-08T21:03:44.207Z,82.29
2022-12-08T21:06:11.914Z,82.00
2022-12-08T21:08:40.009Z,81.92
2022-12-08T21:11:08.272Z,81.93
2022-12-08T21:13:37.304Z,81.74
2022-12-08T21:16:05.414Z,81.85
2022-12-08T21:18:38.970Z,81.96
2022-12-08T21:21:09.485Z,81.81
2022-12-08T21:23:37.221Z,82.01
2022-12-08T21:26:11.436Z,81.87
2022-12-08T21:28:38.509Z,81.84
2022-12-08T21:31:08.199Z,81.66
2022-12-08T21:33:35.824Z,81.89
2022-12-08T21:36:09.166Z,81.75
2022-12-08T21:38:37.847Z,81.80
2022-12-08T21:41:07.244Z,81.62
2022-12-08T21:43:34.540Z,81.74
2022-12-08T21:46:02.004Z,81.64
2022-12-08T21:48:29.240Z,81.59
2022-12-08T21:50:56.891Z,81.20
2022-12-08T21:53:26.484Z,81.43
2022-12-08T21:55:53.687Z,81.39
2022-12-08T21:58:20.694Z,81.05
2022-12-08T22:00:47.792Z,81.31
2022-12-08T22:03:15.517Z,81.03
2022-12-08T22:05:42.815Z,80.95
2022-12-08T22:08:09.802Z,81.07
2022-12-08T22:10:36.925Z,80.97
2022-12-08T22:13:04.001Z,81.02
2022-12-08T22:15:31.045Z,80.85
2022-12-08T22:17:58.109Z,80.95
2022-12-08T22:20:25.363Z,80.88
2022-12-08T22:22:52.320Z,80.88
2022-12-08T22:25:19.300Z,80.85
2022-12-08T22:27:46.328Z,80.72
2022-12-08T22:30:13.473Z,80.66
2022-12-08T22:32:40.409Z,80.79
2022-12-08T22:35:07.885Z,80.85
2022-12-08T22:37:34.742Z,80.69
2022-12-08T22:40:01.605Z,80.67
2022-12-08T22:42:28.459Z,80.73
2022-12-08T22:44:55.271Z,80.62
2022-12-08T22:47:22.114Z,80.54
2022-12-08T22:49:49.091Z,80.60
2022-12-08T22:52:15.914Z,80.47
2022-12-08T22:54:42.782Z,80.41
2022-12-08T22:57:09.728Z,80.78
2022-12-08T22:59:37.634Z,80.70
2022-12-08T23:02:04.576Z,80.47
2022-12-08T23:04:31.556Z,80.55
2022-12-08T23:06:58.604Z,80.59
2022-12-08T23:09:25.624Z,80.72
2022-12-08T23:11:53.690Z,80.59
2022-12-08T23:14:20.760Z,80.72
2022-12-08T23:16:47.781Z,80.31
2022-12-08T23:19:14.752Z,80.17
2022-12-08T23:21:41.709Z,80.62
2022-12-08T23:24:08.642Z,80.45
2022-12-08T23:26:35.916Z,80.69
2022-12-08T23:29:03.732Z,80.72
2022-12-08T23:31:30.834Z,80.72
2022-12-08T23:33:58.243Z,80.71
2022-12-08T23:36:26.525Z,80.64
2022-12-08T23:38:54.494Z,80.72
2022-12-08T23:41:21.516Z,80.67
2022-12-08T23:43:50.767Z,80.59
2022-12-08T23:46:20.311Z,80.85
2022-12-08T23:48:47.667Z,80.91
2022-12-08T23:51:15.029Z,80.89
2022-12-08T23:53:42.667Z,81.04
2022-12-08T23:56:15.802Z,80.97
2022-12-08T23:58:44.084Z,81.07
